Time;durP1;ratioP1;P1;durP2;ratioP2;P2;SDS_P1;SDS_P2;PMS_P1;PMS_P2;Temp;Humidity;BMP_temperature;BMP_pressure;BME280_temperature;BME280_humidity;BME280_pressure;Samples;Min_cycle;Max_cycle;Signal;HPM_P1;HPM_P2
2022/04/22 00:00:14;;;;;;;5.77;5.50;;;;;;;8.40;82.39;101617.00;5012443;28;20483;-44
2022/04/22 00:02:41;;;;;;;6.10;5.70;;;;;;;8.37;82.37;101614.66;5011797;28;20982;-44
2022/04/22 00:05:10;;;;;;;6.53;6.20;;;;;;;8.34;82.63;101609.69;5012570;28;20434;-44
2022/04/22 00:07:38;;;;;;;6.83;6.17;;;;;;;8.31;82.26;101608.19;5012540;28;20804;-48
2022/04/22 00:10:09;;;;;;;6.00;5.50;;;;;;;8.30;82.25;101606.50;5012643;28;20429;-49
2022/04/22 00:12:37;;;;;;;6.20;5.90;;;;;;;8.27;82.37;101596.19;5011864;28;20465;-48
2022/04/22 00:15:05;;;;;;;6.90;6.50;;;;;;;8.25;82.03;101600.81;5012517;28;20437;-47
2022/04/22 00:17:33;;;;;;;6.30;5.90;;;;;;;8.24;82.79;101598.34;5012361;28;20464;-47
2022/04/22 00:20:01;;;;;;;6.87;6.57;;;;;;;8.23;83.53;101601.97;5012389;28;20481;-46
2022/04/22 00:22:30;;;;;;;7.17;6.60;;;;;;;8.21;83.82;101603.97;5011683;28;20453;-49
2022/04/22 00:24:57;;;;;;;6.50;6.20;;;;;;;8.17;83.27;101591.97;5012286;28;20433;-49
2022/04/22 00:27:25;;;;;;;6.63;6.23;;;;;;;8.16;83.70;101595.63;5012271;28;20461;-48
2022/04/22 00:29:52;;;;;;;6.00;5.50;;;;;;;8.13;83.45;101593.28;5012316;28;20433;-45
2022/04/22 00:32:20;;;;;;;6.87;6.20;;;;;;;8.11;84.17;101595.28;5011648;28;20499;-45
2022/04/22 00:34:47;;;;;;;6.37;5.77;;;;;;;8.08;84.40;101603.56;5012254;28;20437;-47
2022/04/22 00:37:15;;;;;;;6.03;5.70;;;;;;;8.04;84.78;101595.09;5011296;28;20457;-49
2022/04/22 00:39:44;;;;;;;6.70;6.20;;;;;;;8.04;84.75;101591.59;5011034;28;20477;-47
2022/04/22 00:42:12;;;;;;;5.80;5.50;;;;;;;8.02;84.89;101590.91;5010613;28;20475;-51
2022/04/22 00:44:40;;;;;;;5.67;5.37;;;;;;;8.00;85.05;101591.09;5011340;28;20440;-49
2022/04/22 00:47:08;;;;;;;5.57;5.27;;;;;;;7.99;84.64;101588.59;5004407;28;20818;-46
2022/04/22 00:49:35;;;;;;;6.50;6.00;;;;;;;7.99;84.84;101599.22;5011336;28;20524;-46
2022/04/22 00:52:04;;;;;;;6.60;6.20;;;;;;;7.97;84.86;101594.06;5011524;28;20468;-46
2022/04/22 00:54:33;;;;;;;5.80;5.60;;;;;;;7.95;84.41;101592.53;5011907;28;20440;-46
2022/04/22 00:57:02;;;;;;;6.63;6.10;;;;;;;7.94;83.96;101590.91;5011692;28;21018;-46
2022/04/22 00:59:32;;;;;;;7.80;6.30;;;;;;;7.91;84.23;101597.34;5012086;28;20433;-48
2022/04/22 01:02:00;;;;;;;7.60;6.97;;;;;;;7.89;84.47;101594.00;5011349;28;20465;-49
2022/04/22 01:09:58;;;;;;;7.33;6.73;;;;;;;7.78;84.82;101588.97;5012068;28;20429;-46
2022/04/22 01:12:30;;;;;;;7.00;6.50;;;;;;;7.78;84.84;101573.06;5011183;28;20468;-45
2022/04/22 01:14:59;;;;;;;5.80;5.50;;;;;;;7.77;84.47;101579.34;5011814;28;20524;-45
2022/04/22 01:17:27;;;;;;;7.13;6.63;;;;;;;7.74;85.17;101569.03;5011662;28;20464;-50
2022/04/22 01:19:55;;;;;;;6.60;6.30;;;;;;;7.74;85.32;101564.56;5011980;28;20480;-47
2022/04/22 01:22:24;;;;;;;8.30;7.60;;;;;;;7.75;85.81;101562.75;5011249;28;20464;-47
2022/04/22 01:24:54;;;;;;;6.40;6.00;;;;;;;7.75;89.30;101565.41;5011788;28;20425;-47
2022/04/22 01:27:23;;;;;;;6.63;6.30;;;;;;;7.76;89.05;101559.13;5011666;28;20468;-46
2022/04/22 01:29:51;;;;;;;6.90;6.57;;;;;;;7.75;88.96;101562.75;5011513;28;20433;-49
2022/04/22 01:32:19;;;;;;;7.43;6.60;;;;;;;7.72;88.76;101558.59;5003337;28;20478;-48
2022/04/22 01:34:46;;;;;;;7.47;6.97;;;;;;;7.75;90.20;101557.44;4987085;28;20434;-47
2022/04/22 01:37:14;;;;;;;11.63;6.97;;;;;;;7.75;89.84;101552.13;4989580;28;20464;-49
2022/04/22 01:39:43;;;;;;;6.77;6.47;;;;;;;7.73;90.97;101548.81;4991995;28;20465;-44
2022/04/22 01:42:10;;;;;;;6.93;6.43;;;;;;;7.74;90.30;101543.31;4994660;28;20470;-47
2022/04/22 01:44:38;;;;;;;7.13;6.63;;;;;;;7.71;89.80;101543.63;4995652;28;20441;-47
2022/04/22 01:47:06;;;;;;;8.37;7.20;;;;;;;7.66;89.76;101548.59;5006725;28;20456;-46
2022/04/22 01:49:34;;;;;;;7.70;7.20;;;;;;;7.60;89.36;101545.75;5015032;28;20429;-46
2022/04/22 01:52:02;;;;;;;7.50;7.00;;;;;;;7.57;89.99;101540.75;5014416;28;20457;-45
2022/04/22 01:54:29;;;;;;;7.30;6.97;;;;;;;7.54;89.90;101541.91;5014989;28;20437;-47
2022/04/22 01:56:58;;;;;;;7.47;6.97;;;;;;;7.55;91.09;101540.91;5014452;28;20465;-45
2022/04/22 01:59:26;;;;;;;7.67;7.07;;;;;;;7.57;91.32;101535.44;5014922;28;20433;-48
2022/04/22 02:01:53;;;;;;;6.70;6.30;;;;;;;7.55;91.36;101540.91;5013978;28;20477;-44
2022/04/22 02:04:22;;;;;;;6.50;6.10;;;;;;;7.57;91.71;101544.22;5014828;28;20433;-49
2022/04/22 02:06:49;;;;;;;7.00;6.60;;;;;;;7.60;91.59;101540.44;5014513;28;20456;-48
2022/04/22 02:09:17;;;;;;;6.90;6.47;;;;;;;7.64;91.72;101531.16;5014479;28;20799;-46
2022/04/22 02:11:44;;;;;;;6.50;6.10;;;;;;;7.67;91.05;101536.16;5014146;28;20996;-44
2022/04/22 02:14:13;;;;;;;7.43;6.83;;;;;;;7.67;91.11;101520.25;5014668;28;20444;-47
2022/04/22 02:16:41;;;;;;;7.83;7.17;;;;;;;7.68;90.54;101528.03;5014238;28;20465;-47
2022/04/22 02:19:09;;;;;;;7.00;6.40;;;;;;;7.71;90.58;101526.88;5014517;28;20432;-47
2022/04/22 02:21:36;;;;;;;7.30;6.83;;;;;;;7.72;89.90;101526.72;5013623;28;20963;-48
2022/04/22 02:24:04;;;;;;;7.60;7.00;;;;;;;7.73;89.97;101527.56;5014300;28;20810;-46
2022/04/22 02:28:31;;;;;;;7.03;6.73;;;;;;;7.72;89.97;101518.75;5014701;28;20465;-45
2022/04/22 02:29:22;;;;;;;7.93;7.40;;;;;;;7.72;89.71;101515.28;5014149;28;20433;-49
2022/04/22 02:31:52;;;;;;;6.57;6.27;;;;;;;7.71;90.00;101525.06;5013639;28;20461;-48
2022/04/22 02:34:20;;;;;;;7.67;6.90;;;;;;;7.68;89.62;101513.91;5014258;28;20429;-46
2022/04/22 02:36:48;;;;;;;6.83;6.43;;;;;;;7.66;90.55;101521.22;5014245;28;20456;-45
2022/04/22 02:39:16;;;;;;;8.00;7.37;;;;;;;7.63;90.93;101514.41;5014224;28;20818;-44
2022/04/22 02:47:16;;;;;;;6.87;6.37;;;;;;;7.66;91.02;101502.63;5000810;28;20453;-46
2022/04/22 02:49:44;;;;;;;6.80;6.30;;;;;;;7.67;90.63;101496.34;5013908;28;20440;-46
2022/04/22 02:52:12;;;;;;;6.77;6.40;;;;;;;7.67;90.90;101502.50;5013430;28;20461;-45
2022/04/22 02:54:39;;;;;;;6.53;6.23;;;;;;;7.69;91.90;101502.31;5013879;28;20503;-45
2022/04/22 02:57:08;;;;;;;9.43;6.70;;;;;;;7.72;91.81;101486.91;5013473;28;20475;-44
2022/04/22 02:59:39;;;;;;;7.20;6.77;;;;;;;7.76;91.98;101492.72;5013552;28;20429;-47
2022/04/22 03:02:08;;;;;;;7.77;7.27;;;;;;;7.79;91.55;101492.41;5013012;28;20469;-44
2022/04/22 03:04:36;;;;;;;7.57;6.57;;;;;;;7.80;90.96;101494.06;5013625;28;20942;-44
2022/04/22 03:07:05;;;;;;;7.50;6.80;;;;;;;7.83;92.19;101491.09;5013454;28;20527;-47
2022/04/22 03:09:32;;;;;;;6.63;6.23;;;;;;;7.89;93.47;101493.09;5013639;28;20810;-46
2022/04/22 03:12:00;;;;;;;8.90;7.07;;;;;;;7.90;92.20;101496.59;5012619;28;20464;-45
2022/04/22 03:14:29;;;;;;;6.73;6.33;;;;;;;7.90;91.60;101504.56;5013748;28;20440;-45
2022/04/22 03:16:58;;;;;;;7.50;7.00;;;;;;;7.84;90.46;101484.78;5013220;28;21018;-48
2022/04/22 03:19:25;;;;;;;7.20;6.80;;;;;;;7.79;90.07;101479.94;5013321;28;20483;-45
2022/04/22 03:21:53;;;;;;;7.73;7.20;;;;;;;7.79;91.62;101489.75;5012506;28;20465;-47
2022/04/22 03:24:20;;;;;;;7.83;7.30;;;;;;;7.75;92.59;101483.09;5012741;28;20433;-44
2022/04/22 03:26:48;;;;;;;7.97;7.30;;;;;;;7.75;93.28;101475.97;5012129;28;20468;-45
2022/04/22 03:29:16;;;;;;;6.40;5.97;;;;;;;7.76;93.14;101479.47;5012463;28;20432;-47
2022/04/22 03:31:44;;;;;;;6.70;6.30;;;;;;;7.75;93.54;101465.34;5012405;28;21017;-47
2022/04/22 03:34:13;;;;;;;7.27;6.67;;;;;;;7.75;93.30;101467.16;5013088;28;20439;-43
2022/04/22 03:36:40;;;;;;;8.10;7.60;;;;;;;7.74;94.13;101471.63;5012875;28;20483;-49
2022/04/22 03:39:09;;;;;;;6.47;6.07;;;;;;;7.75;94.65;101469.81;5012898;28;20521;-46
2022/04/22 03:41:38;;;;;;;7.10;6.47;;;;;;;7.73;94.45;101466.50;5011955;28;20489;-46
2022/04/22 03:44:06;;;;;;;6.40;5.97;;;;;;;7.73;94.04;101466.50;5012895;28;20946;-44
2022/04/22 03:46:35;;;;;;;7.27;6.57;;;;;;;7.75;94.19;101473.31;5006124;28;20460;-46
2022/04/22 03:49:04;;;;;;;7.50;6.80;;;;;;;7.74;95.21;101463.66;5012852;28;20428;-44
2022/04/22 03:51:34;;;;;;;7.63;6.97;;;;;;;7.74;94.64;101462.84;5011836;28;20584;-45
2022/04/22 03:54:02;;;;;;;6.80;6.40;;;;;;;7.72;93.62;101473.63;5012811;28;20460;-43
2022/04/22 03:59:14;;;;;;;7.27;6.77;;;;;;;7.71;94.66;101489.72;5012688;28;20799;-43
2022/04/22 04:01:42;;;;;;;6.67;6.37;;;;;;;7.69;93.70;101473.13;5011697;28;20987;-47
2022/04/22 04:04:10;;;;;;;6.87;6.47;;;;;;;7.67;94.14;101467.97;5008359;28;20448;-44
2022/04/22 04:06:39;;;;;;;8.10;7.50;;;;;;;7.64;94.27;101459.50;5012443;28;20453;-47
2022/04/22 04:17:22;;;;;;;7.97;7.40;;;;;;;7.61;93.92;101454.50;5012416;28;20457;-46
2022/04/22 04:25:29;;;;;;;7.43;6.83;;;;;;;7.61;93.36;101467.78;4965793;28;20437;-49
2022/04/22 04:27:57;;;;;;;7.17;6.60;;;;;;;7.62;93.10;101474.72;5012366;28;20807;-46
2022/04/22 04:30:25;;;;;;;6.63;6.03;;;;;;;7.67;92.77;101456.53;5011979;28;20447;-47
2022/04/22 04:32:53;;;;;;;7.43;6.80;;;;;;;7.94;90.65;101453.63;5011858;28;20468;-49
2022/04/22 04:35:20;;;;;;;5.67;5.37;;;;;;;8.18;88.64;101451.00;5012431;28;20436;-49
2022/04/22 04:37:49;;;;;;;6.10;5.70;;;;;;;8.44;87.59;101456.22;5012189;28;20476;-47
2022/04/22 04:40:17;;;;;;;6.07;5.77;;;;;;;8.48;86.23;101457.56;5011937;28;20429;-47
2022/04/22 04:42:44;;;;;;;7.10;6.70;;;;;;;8.64;85.97;101472.66;5011548;28;20480;-48
2022/04/22 04:45:12;;;;;;;6.97;6.47;;;;;;;8.72;84.76;101449.56;5009245;28;20754;-47
2022/04/22 04:47:41;;;;;;;7.00;6.50;;;;;;;8.75;84.26;101445.75;5008629;28;20457;-50
2022/04/22 04:50:10;;;;;;;8.33;7.67;;;;;;;8.96;83.97;101445.22;4973218;28;20465;-46
2022/04/22 04:52:39;;;;;;;8.50;6.70;;;;;;;9.37;82.88;101457.44;4972508;28;20462;-47
2022/04/22 04:55:10;;;;;;;6.63;6.13;;;;;;;9.87;79.41;101444.56;4973109;28;20454;-47
2022/04/22 04:57:38;;;;;;;5.93;5.60;;;;;;;10.50;76.38;101449.69;4972970;28;20471;-50
2022/04/22 05:00:08;;;;;;;5.83;5.43;;;;;;;11.08;72.66;101448.13;4972931;28;20427;-45
2022/04/22 05:02:36;;;;;;;6.93;6.63;;;;;;;11.41;69.69;101440.63;4955424;28;20485;-47
2022/04/22 05:05:05;;;;;;;6.47;6.10;;;;;;;11.78;68.35;101442.34;4972974;28;20431;-50
2022/04/22 05:07:33;;;;;;;5.70;5.40;;;;;;;11.96;67.91;101445.44;4973034;28;20470;-48
2022/04/22 05:10:01;;;;;;;4.93;4.50;;;;;;;12.02;65.76;101442.84;4972869;28;20830;-49
2022/04/22 05:12:35;;;;;;;5.50;5.20;;;;;;;12.38;64.71;101429.41;4972311;28;20538;-46
2022/04/22 05:15:02;;;;;;;5.47;5.00;;;;;;;12.41;63.31;101439.75;4974316;28;20442;-50
2022/04/22 05:17:30;;;;;;;5.50;5.20;;;;;;;12.99;64.02;101441.22;4976505;28;20817;-45
2022/04/22 05:19:57;;;;;;;5.67;5.37;;;;;;;13.54;60.83;101440.38;4976369;28;20448;-50
2022/04/22 05:22:25;;;;;;;6.13;5.80;;;;;;;14.17;60.34;101436.47;4975812;28;20491;-51
2022/04/22 05:24:53;;;;;;;5.40;5.10;;;;;;;14.22;56.88;101434.00;4976372;28;20431;-48
2022/04/22 05:27:20;;;;;;;5.10;4.90;;;;;;;14.21;56.75;101431.53;4975311;28;20584;-47
2022/04/22 05:32:42;;;;;;;4.70;4.43;;;;;;;14.51;54.84;101434.69;4974949;28;20528;-48
2022/04/22 05:35:10;;;;;;;5.00;4.70;;;;;;;14.51;55.94;101435.53;4975650;28;20441;-52
2022/04/22 05:37:48;;;;;;;5.17;4.90;;;;;;;14.65;54.91;101430.97;4975183;28;20816;-47
2022/04/22 05:40:18;;;;;;;5.07;4.77;;;;;;;14.82;54.49;101433.03;4975257;28;20439;-45
2022/04/22 05:42:50;;;;;;;5.23;4.90;;;;;;;14.77;54.57;101427.47;4974815;28;20482;-52
2022/04/22 05:45:21;;;;;;;5.40;5.00;;;;;;;14.96;53.91;101415.06;4975187;28;20435;-48
2022/04/22 05:47:51;;;;;;;5.20;4.83;;;;;;;15.36;53.51;101411.25;5009585;28;20461;-52
2022/04/22 05:50:19;;;;;;;4.70;4.50;;;;;;;14.57;52.56;101421.28;5014393;28;20429;-52
2022/04/22 05:52:47;;;;;;;5.90;5.40;;;;;;;15.00;52.51;101418.13;5014345;28;20468;-47
2022/04/22 05:55:17;;;;;;;5.10;4.60;;;;;;;15.83;50.07;101423.50;5014989;28;20432;-47
2022/04/22 05:57:45;;;;;;;6.53;4.90;;;;;;;15.65;50.06;101414.50;5014861;28;20461;-50
2022/04/22 06:00:15;;;;;;;4.53;4.33;;;;;;;15.64;50.60;101413.66;5014681;28;20444;-52
2022/04/22 06:02:45;;;;;;;5.33;5.03;;;;;;;15.87;50.59;101419.34;5014052;28;20488;-50
2022/04/22 06:05:15;;;;;;;5.50;5.07;;;;;;;15.86;48.59;101406.13;5014892;28;20499;-48
2022/04/22 06:07:43;;;;;;;4.87;4.67;;;;;;;16.20;49.58;101402.19;5014621;28;20463;-46
2022/04/22 06:12:58;;;;;;;4.60;4.40;;;;;;;15.96;47.60;101396.53;5014009;28;20456;-49
2022/04/22 06:15:26;;;;;;;4.03;3.93;;;;;;;16.50;47.43;101398.63;5014309;28;20476;-49
2022/04/22 06:17:54;;;;;;;4.57;4.27;;;;;;;16.71;46.82;101397.47;5014470;28;20436;-51
2022/04/22 06:20:22;;;;;;;4.40;4.10;;;;;;;17.38;46.50;101407.31;5013530;28;20923;-49
2022/04/22 06:22:50;;;;;;;4.30;3.90;;;;;;;17.44;44.98;101401.03;5012965;28;20538;-51
2022/04/22 06:25:18;;;;;;;4.03;3.83;;;;;;;17.23;45.75;101388.03;5013398;28;20437;-49
2022/04/22 06:27:46;;;;;;;4.47;4.17;;;;;;;16.71;44.73;101397.47;5014207;28;20544;-51
2022/04/22 06:30:16;;;;;;;4.67;4.47;;;;;;;16.39;45.35;101393.16;5014175;28;20425;-50
2022/04/22 06:32:45;;;;;;;4.27;4.07;;;;;;;16.59;46.43;101402.75;5013873;28;20998;-46
2022/04/22 06:35:18;;;;;;;4.50;4.23;;;;;;;16.55;45.80;101387.22;5014168;28;20451;-51
2022/04/22 06:37:47;;;;;;;4.80;4.30;;;;;;;16.46;45.82;101380.44;5013726;28;20452;-48
2022/04/22 06:45:49;;;;;;;4.37;4.13;;;;;;;16.15;45.82;101377.78;5007109;28;20454;-47
2022/04/22 06:48:21;;;;;;;6.53;4.50;;;;;;;16.14;45.03;101398.50;5013873;28;20435;-48
2022/04/22 06:51:11;;;;;;;4.53;4.17;;;;;;;15.82;46.34;101392.28;5012933;28;20938;-51
2022/04/22 06:53:39;;;;;;;5.00;4.80;;;;;;;15.87;45.69;101387.06;5013682;28;20439;-50
2022/04/22 06:56:08;;;;;;;4.60;4.30;;;;;;;16.32;47.14;101374.34;5012498;28;20483;-51
2022/04/22 06:58:38;;;;;;;4.10;3.90;;;;;;;16.53;45.98;101379.34;5013376;28;21072;-48
2022/04/22 07:01:08;;;;;;;4.60;3.90;;;;;;;16.14;45.44;101373.44;5012786;28;20984;-48
2022/04/22 07:03:56;;;;;;;4.47;4.20;;;;;;;16.09;45.68;101382.19;5013350;28;20484;-49
2022/04/22 07:06:25;;;;;;;4.07;3.77;;;;;;;16.19;45.97;101392.47;5013333;28;21001;-48
2022/04/22 07:08:53;;;;;;;4.50;4.20;;;;;;;15.82;45.89;101397.66;5011842;28;20429;-47
2022/04/22 07:11:25;;;;;;;4.73;4.53;;;;;;;15.67;46.49;101401.66;5012679;28;20464;-50
2022/04/22 07:13:53;;;;;;;4.50;4.20;;;;;;;15.64;47.98;101402.09;5013562;28;20457;-48
2022/04/22 07:16:21;;;;;;;4.60;4.30;;;;;;;15.46;47.54;101402.75;5013494;28;20456;-52
2022/04/22 07:18:50;;;;;;;5.47;5.07;;;;;;;15.61;47.77;101381.00;5013292;28;20428;-48
2022/04/22 07:21:18;;;;;;;5.77;5.23;;;;;;;15.40;47.79;101392.84;5012498;28;20457;-48
2022/04/22 07:23:48;;;;;;;7.13;5.47;;;;;;;15.64;48.11;101396.69;5012659;28;20478;-47
2022/04/22 07:26:18;;;;;;;4.90;4.60;;;;;;;15.72;46.81;101399.97;5013157;28;20449;-48
2022/04/22 07:28:47;;;;;;;5.17;4.77;;;;;;;15.70;48.82;101410.13;5013243;28;20818;-48
2022/04/22 07:31:16;;;;;;;5.67;5.03;;;;;;;15.01;48.44;101414.44;5012292;28;21051;-45
2022/04/22 07:33:45;;;;;;;5.77;5.47;;;;;;;14.53;49.79;101395.88;5013071;28;20440;-51
2022/04/22 07:36:13;;;;;;;5.27;4.87;;;;;;;14.14;52.14;101398.50;5012835;28;20461;-50
2022/04/22 07:38:40;;;;;;;5.60;5.30;;;;;;;13.76;53.83;101401.72;5011581;28;20437;-48
2022/04/22 07:41:11;;;;;;;5.13;4.87;;;;;;;13.19;54.32;101390.53;5012427;28;20434;-47
2022/04/22 07:49:11;;;;;;;5.47;5.10;;;;;;;12.73;57.10;101412.44;4997435;28;20941;-47
2022/04/22 07:51:39;;;;;;;5.90;5.60;;;;;;;12.71;57.46;101408.31;5011472;28;21019;-45
2022/04/22 07:54:07;;;;;;;7.70;5.50;;;;;;;12.73;57.31;101414.28;5012031;28;20429;-47
2022/04/22 07:56:36;;;;;;;5.47;5.07;;;;;;;12.64;57.12;101405.56;5012559;28;20475;-46
2022/04/22 07:59:04;;;;;;;8.90;7.00;;;;;;;12.51;57.51;101408.16;5012506;28;20935;-48
2022/04/22 08:01:31;;;;;;;8.83;6.70;;;;;;;12.51;60.19;101405.47;5011732;28;20473;-47
2022/04/22 08:03:59;;;;;;;8.20;7.30;;;;;;;12.80;59.60;101407.13;5012569;28;20477;-47
2022/04/22 08:06:27;;;;;;;8.70;7.90;;;;;;;12.80;58.81;101400.94;5012595;28;20493;-48
2022/04/22 08:08:54;;;;;;;10.40;8.00;;;;;;;12.86;57.82;101408.19;5012562;28;20441;-47
2022/04/22 08:11:22;;;;;;;14.33;9.33;;;;;;;13.07;55.93;101394.75;5011734;28;20480;-50
2022/04/22 08:13:51;;;;;;;5.50;5.27;;;;;;;13.41;55.79;101383.22;4995994;28;20441;-46
2022/04/22 08:16:19;;;;;;;19.00;10.60;;;;;;;13.61;55.53;101400.22;4986259;28;20548;-47
2022/04/22 08:18:46;;;;;;;14.00;10.87;;;;;;;13.65;56.45;101399.59;5010786;28;20613;-46
2022/04/22 08:21:14;;;;;;;16.97;12.70;;;;;;;13.40;57.75;101394.97;5011231;28;20453;-50
2022/04/22 08:23:41;;;;;;;18.47;12.53;;;;;;;13.45;57.09;101401.38;5011784;28;20480;-47
2022/04/22 08:26:09;;;;;;;13.63;10.93;;;;;;;13.27;57.50;101409.94;5004228;28;20461;-51
2022/04/22 08:28:38;;;;;;;21.03;15.40;;;;;;;13.04;58.62;101406.69;4992148;28;20440;-47
2022/04/22 08:31:07;;;;;;;16.20;13.93;;;;;;;13.02;58.63;101413.28;4992125;28;20444;-47
2022/04/22 08:33:35;;;;;;;8.27;7.57;;;;;;;12.82;59.64;101399.72;4992425;28;20434;-46
2022/04/22 08:36:02;;;;;;;7.47;6.87;;;;;;;12.98;60.13;101401.28;4992150;28;20453;-48
2022/04/22 08:38:30;;;;;;;7.00;6.00;;;;;;;12.89;59.40;101392.59;4992577;28;20777;-47
2022/04/22 08:40:58;;;;;;;6.50;6.00;;;;;;;13.01;60.58;101406.25;4991716;28;20438;-44
2022/04/22 08:43:26;;;;;;;6.47;5.57;;;;;;;13.04;59.11;101409.38;4992594;28;20434;-48
2022/04/22 08:45:53;;;;;;;6.10;5.80;;;;;;;13.03;59.54;101412.22;4994178;28;20805;-47
2022/04/22 08:51:25;;;;;;;5.83;5.30;;;;;;;12.95;59.06;101405.19;4990531;28;20478;-44
2022/04/22 08:53:56;;;;;;;7.03;6.40;;;;;;;12.95;60.18;101397.16;5016179;28;20436;-46
2022/04/22 08:56:24;;;;;;;6.37;5.87;;;;;;;13.02;59.64;101399.88;5015854;28;20468;-45
2022/04/22 08:58:51;;;;;;;6.37;6.07;;;;;;;12.91;60.10;101406.59;5015825;28;21135;-48
2022/04/22 09:01:19;;;;;;;6.33;6.03;;;;;;;13.03;59.86;101405.03;5015236;28;20457;-43
2022/04/22 09:03:48;;;;;;;6.73;6.03;;;;;;;12.96;59.39;101404.13;5015618;28;20484;-45
2022/04/22 09:06:16;;;;;;;6.67;6.20;;;;;;;12.95;59.02;101390.97;5016099;28;20459;-45
2022/04/22 09:08:44;;;;;;;6.37;5.90;;;;;;;12.92;60.71;101416.28;5015882;28;20795;-46
2022/04/22 09:11:12;;;;;;;6.93;6.33;;;;;;;12.88;61.06;101406.97;5015542;28;20440;-45
2022/04/22 09:13:39;;;;;;;6.67;6.17;;;;;;;12.85;61.12;101406.53;5015734;28;20436;-49
2022/04/22 09:16:08;;;;;;;6.60;6.20;;;;;;;12.78;62.13;101398.47;5015512;28;20453;-46
2022/04/22 09:18:39;;;;;;;7.93;7.43;;;;;;;12.74;62.07;101398.03;5015492;28;20888;-49
2022/04/22 09:21:15;;;;;;;7.60;6.90;;;;;;;12.94;61.13;101416.06;5014787;28;20471;-46
2022/04/22 09:23:42;;;;;;;7.10;6.40;;;;;;;12.86;61.43;101395.66;5015536;28;20906;-46
2022/04/22 09:26:21;;;;;;;10.20;7.27;;;;;;;13.17;62.11;101393.38;5015303;28;20484;-44
2022/04/22 09:28:58;;;;;;;6.83;6.23;;;;;;;13.11;60.20;101393.38;5015350;28;20429;-48
2022/04/22 09:31:27;;;;;;;7.33;6.70;;;;;;;13.14;59.67;101390.31;5014846;28;20462;-44
2022/04/22 09:33:55;;;;;;;7.10;6.60;;;;;;;13.35;59.59;101384.81;5015304;28;20803;-48
2022/04/22 09:44:55;;;;;;;7.37;6.77;;;;;;;13.27;59.71;101390.34;5014667;28;20476;-47
2022/04/22 09:47:27;;;;;;;6.87;6.27;;;;;;;13.25;59.58;101371.81;5009018;28;20532;-45
2022/04/22 09:49:55;;;;;;;6.80;6.40;;;;;;;13.26;60.76;101408.28;5014836;28;20421;-47
2022/04/22 09:52:27;;;;;;;7.23;6.57;;;;;;;12.91;61.01;101387.84;5014426;28;20461;-45
2022/04/22 09:54:57;;;;;;;7.27;6.57;;;;;;;13.27;61.62;101379.66;5010900;28;20436;-45
2022/04/22 09:57:52;;;;;;;11.03;6.30;;;;;;;13.51;60.16;101384.50;5014924;28;20499;-47
2022/04/22 10:00:20;;;;;;;7.60;6.90;;;;;;;13.51;60.11;101370.28;5013987;28;20878;-46
2022/04/22 10:02:50;;;;;;;7.80;7.10;;;;;;;13.78;59.23;101372.84;5014356;28;21009;-49
2022/04/22 10:05:19;;;;;;;8.60;8.00;;;;;;;13.98;59.42;101372.88;5014999;28;20499;-44
2022/04/22 10:07:52;;;;;;;8.13;7.43;;;;;;;14.07;57.01;101376.19;5014597;28;20468;-46
2022/04/22 10:10:23;;;;;;;7.70;7.20;;;;;;;14.24;58.09;101386.34;5014376;28;20456;-46
2022/04/22 10:12:53;;;;;;;8.07;6.90;;;;;;;14.01;58.34;101385.09;5014117;28;20465;-46
2022/04/22 10:15:22;;;;;;;8.33;7.67;;;;;;;14.12;57.88;101381.78;5014668;28;20429;-45
2022/04/22 10:17:50;;;;;;;8.87;7.23;;;;;;;14.39;57.95;101383.50;5011745;28;20466;-46
2022/04/22 10:20:19;;;;;;;7.20;6.53;;;;;;;14.20;57.25;101392.31;5014136;28;20799;-46
2022/04/22 10:22:50;;;;;;;7.67;7.10;;;;;;;14.26;57.81;101384.28;5013729;28;20469;-49
2022/04/22 10:25:18;;;;;;;7.93;7.20;;;;;;;14.31;56.77;101384.47;5014062;28;20476;-50
2022/04/22 10:27:47;;;;;;;7.13;6.60;;;;;;;14.36;56.16;101392.78;5014255;28;20464;-48
2022/04/22 10:30:16;;;;;;;8.20;7.37;;;;;;;14.22;57.33;101393.75;5013786;28;20970;-50
2022/04/22 10:32:48;;;;;;;7.33;6.83;;;;;;;14.47;57.80;101398.56;5013734;28;20469;-47
2022/04/22 10:35:16;;;;;;;7.63;7.03;;;;;;;14.43;57.75;101376.66;5014244;28;20421;-50
2022/04/22 10:37:43;;;;;;;6.83;6.20;;;;;;;14.43;56.32;101376.66;5010807;28;20461;-49
2022/04/22 10:40:30;;;;;;;9.53;7.30;;;;;;;14.37;55.72;101396.28;5013825;28;20436;-43
2022/04/22 10:43:01;;;;;;;8.07;7.47;;;;;;;14.45;55.64;101369.25;5013479;28;20476;-46
2022/04/22 10:48:25;;;;;;;7.97;7.17;;;;;;;14.03;56.84;101386.53;4999391;28;20499;-49
2022/04/22 10:50:58;;;;;;;7.97;7.20;;;;;;;14.12;57.23;101392.53;5013154;28;20433;-45
2022/04/22 10:53:27;;;;;;;8.03;7.20;;;;;;;14.01;57.39;101391.25;5013648;28;20448;-46
2022/04/22 10:56:32;;;;;;;9.20;8.23;;;;;;;13.61;58.62;101384.13;5013574;28;20481;-47
2022/04/22 10:59:32;;;;;;;14.67;8.13;;;;;;;13.32;59.74;101378.00;5013593;28;20437;-46
2022/04/22 11:02:27;;;;;;;15.10;7.47;;;;;;;13.32;59.86;101387.91;5013038;28;20469;-45
2022/04/22 11:05:30;;;;;;;12.30;8.40;;;;;;;13.10;60.25;101387.19;5012812;28;20823;-50
2022/04/22 11:07:58;;;;;;;8.87;8.20;;;;;;;13.22;60.67;101384.78;5013192;28;20448;-47
2022/04/22 11:10:29;;;;;;;8.70;7.90;;;;;;;13.46;60.39;101384.28;5013312;28;20444;-47
2022/04/22 11:12:59;;;;;;;10.27;7.67;;;;;;;13.42;60.06;101374.16;5011682;28;20469;-47
2022/04/22 11:15:51;;;;;;;8.57;7.67;;;;;;;13.30;61.67;101384.59;5013565;28;20433;-49
2022/04/22 11:18:21;;;;;;;9.57;8.63;;;;;;;13.27;61.75;101374.28;5013350;28;20437;-51
2022/04/22 11:20:52;;;;;;;9.00;8.37;;;;;;;13.50;62.37;101374.78;5013057;28;20433;-46
2022/04/22 11:23:20;;;;;;;8.20;7.60;;;;;;;13.59;62.03;101364.75;5012884;28;20441;-47
2022/04/22 11:25:47;;;;;;;9.40;8.70;;;;;;;13.58;60.99;101355.88;5012823;28;20481;-46
2022/04/22 11:28:17;;;;;;;11.80;8.50;;;;;;;13.89;60.82;101366.06;5013301;28;20444;-46
2022/04/22 11:30:45;;;;;;;9.33;8.67;;;;;;;13.75;60.38;101386.66;5013050;28;20441;-50
2022/04/22 11:33:20;;;;;;;12.83;9.50;;;;;;;13.64;61.42;101364.97;5012478;28;20531;-49
2022/04/22 11:35:50;;;;;;;9.63;8.50;;;;;;;13.76;62.07;101384.81;5012531;28;20445;-46
2022/04/22 11:38:17;;;;;;;13.43;9.80;;;;;;;13.56;62.39;101367.84;5013088;28;20440;-45
2022/04/22 11:40:47;;;;;;;11.80;9.40;;;;;;;13.42;62.87;101379.50;5012916;28;20435;-49
2022/04/22 11:43:18;;;;;;;12.10;9.57;;;;;;;13.45;62.22;101374.56;5012270;28;20465;-44
2022/04/22 11:45:46;;;;;;;13.23;9.43;;;;;;;13.68;62.26;101372.38;5005691;28;20485;-47
2022/04/22 11:48:15;;;;;;;10.93;9.93;;;;;;;13.82;63.70;101374.09;5012105;28;20926;-45
2022/04/22 11:50:45;;;;;;;15.17;10.07;;;;;;;13.68;63.00;101384.97;5012285;28;20433;-46
2022/04/22 11:53:17;;;;;;;10.53;9.63;;;;;;;13.47;64.33;101387.78;5012178;28;20468;-46
2022/04/22 11:55:47;;;;;;;10.70;9.03;;;;;;;13.36;64.23;101378.44;5012283;28;20448;-45
2022/04/22 11:58:19;;;;;;;11.03;9.97;;;;;;;13.36;64.40;101389.16;5011725;28;20437;-45
2022/04/22 12:06:19;;;;;;;13.87;9.87;;;;;;;13.12;65.73;101371.75;5012727;28;20564;-45
2022/04/22 12:08:54;;;;;;;15.87;10.80;;;;;;;13.32;64.91;101382.53;5012318;28;20965;-46
2022/04/22 12:11:22;;;;;;;12.70;9.90;;;;;;;13.40;64.32;101389.59;5011600;28;20461;-47
2022/04/22 12:13:52;;;;;;;12.70;9.93;;;;;;;13.50;63.78;101376.69;5012595;28;20512;-45
2022/04/22 12:16:21;;;;;;;11.47;10.40;;;;;;;13.61;63.56;101368.88;4994394;28;20451;-43
2022/04/22 12:18:50;;;;;;;13.60;10.37;;;;;;;13.86;64.59;101375.31;4972831;28;20801;-47
2022/04/22 12:21:19;;;;;;;11.70;10.47;;;;;;;13.95;63.84;101365.25;4972609;28;20466;-47
2022/04/22 12:23:47;;;;;;;10.90;9.80;;;;;;;13.99;63.67;101373.72;4972713;28;20434;-46
2022/04/22 12:26:17;;;;;;;10.87;9.87;;;;;;;14.05;63.17;101363.00;4972960;28;20486;-45
2022/04/22 12:28:59;;;;;;;14.57;9.73;;;;;;;14.29;62.39;101369.63;4973302;28;20443;-46
2022/04/22 12:31:29;;;;;;;9.30;8.40;;;;;;;14.31;60.88;101363.00;4972508;28;20462;-44
2022/04/22 12:33:57;;;;;;;14.27;9.97;;;;;;;14.21;61.11;101362.63;4972879;28;20805;-48
2022/04/22 12:36:25;;;;;;;13.30;9.67;;;;;;;14.19;61.11;101356.59;4972811;28;20474;-47
2022/04/22 12:38:53;;;;;;;11.37;9.50;;;;;;;14.20;61.89;101355.59;4972749;28;20435;-47
2022/04/22 12:41:23;;;;;;;13.20;8.77;;;;;;;14.31;62.65;101363.00;4972501;28;20467;-48